Miami, Florida
Traffic Map
Current Weather Conditions
Miami, Florida
Broken Clouds
Broken Clouds
75°
Feels Like: 75°
Wind Chill: 75° Ceiling: 4500
Heat Index: 75° Visibility: 10mi
Dew Point: 69° Wind: 7mph
Humidity: 82% Direction: 110° (ESE)
Pressure: 30.2in Gusts: 0mph
Raw Report DataKOPF 172253Z 11006KT 10SM BKN045 24/21 A3020 RMK AO2 SLP226 T02390206
Traffic Incident Summary
Active as of:
Severity:
Category:
InformationThere was an issue retrieving the traffic information for this location. Please try a different location or try again shortly.
Advertisements